Aviation Digital Data Service (ADDS)

Output produced by METARs form (1102 UTC 06 March 2015)
found at http://aviationweather.gov/adds/metars/
 
KROA 060523Z 0606/0706 33007KT P6SM SCT040 
     FM061200 VRB03KT P6SM SKC 
     FM061900 15006KT P6SM SKC 
     FM070000 25002KT P6SM SKC